sensor_id;sensor_type;location;lat;lon;timestamp;pressure;altitude;pressure_sealevel;temperature;humidity
29121;BME280;16191;49.548;8.658;2023-08-06T00:01:10;99525.84;;;16.28;100.00
29121;BME280;16191;49.548;8.658;2023-08-06T00:03:37;99525.84;;;16.28;100.00
29121;BME280;16191;49.548;8.658;2023-08-06T00:06:07;99524.78;;;16.31;100.00
29121;BME280;16191;49.548;8.658;2023-08-06T00:08:33;99520.47;;;16.30;100.00
29121;BME280;16191;49.548;8.658;2023-08-06T00:11:00;99524.06;;;16.29;100.00
29121;BME280;16191;49.548;8.658;2023-08-06T00:13:26;99515.94;;;16.32;100.00
29121;BME280;16191;49.548;8.658;2023-08-06T00:15:53;99507.06;;;16.33;100.00
29121;BME280;16191;49.548;8.658;2023-08-06T00:18:20;99503.09;;;16.27;100.00
29121;BME280;16191;49.548;8.658;2023-08-06T00:20:46;99498.91;;;16.25;100.00
29121;BME280;16191;49.548;8.658;2023-08-06T00:23:13;99501.81;;;16.22;100.00
29121;BME280;16191;49.548;8.658;2023-08-06T00:25:40;99502.97;;;16.18;100.00
29121;BME280;16191;49.548;8.658;2023-08-06T00:28:06;99499.06;;;16.23;100.00
29121;BME280;16191;49.548;8.658;2023-08-06T00:30:33;99494.75;;;16.22;100.00
29121;BME280;16191;49.548;8.658;2023-08-06T00:32:59;99489.94;;;16.27;100.00
29121;BME280;16191;49.548;8.658;2023-08-06T00:35:26;99486.47;;;16.27;100.00
29121;BME280;16191;49.548;8.658;2023-08-06T00:37:53;99473.19;;;16.28;100.00
29121;BME280;16191;49.548;8.658;2023-08-06T00:40:20;99472.00;;;16.32;100.00
29121;BME280;16191;49.548;8.658;2023-08-06T00:42:48;99485.56;;;16.39;100.00
29121;BME280;16191;49.548;8.658;2023-08-06T00:45:15;99470.25;;;16.44;100.00
29121;BME280;16191;49.548;8.658;2023-08-06T00:47:43;99467.97;;;16.39;100.00
29121;BME280;16191;49.548;8.658;2023-08-06T00:50:11;99460.56;;;16.44;100.00
29121;BME280;16191;49.548;8.658;2023-08-06T00:52:37;99454.19;;;16.47;100.00
29121;BME280;16191;49.548;8.658;2023-08-06T00:55:05;99454.31;;;16.45;100.00
29121;BME280;16191;49.548;8.658;2023-08-06T00:57:32;99455.28;;;16.44;100.00
29121;BME280;16191;49.548;8.658;2023-08-06T00:59:59;99450.97;;;16.43;100.00
29121;BME280;16191;49.548;8.658;2023-08-06T01:02:26;99451.81;;;16.44;100.00
29121;BME280;16191;49.548;8.658;2023-08-06T01:04:52;99458.28;;;16.40;100.00
29121;BME280;16191;49.548;8.658;2023-08-06T01:07:31;99447.72;;;16.40;100.00
29121;BME280;16191;49.548;8.658;2023-08-06T01:13:08;99439.50;;;16.44;100.00
29121;BME280;16191;49.548;8.658;2023-08-06T01:15:41;99447.84;;;16.50;100.00
29121;BME280;16191;49.548;8.658;2023-08-06T01:18:28;99442.47;;;16.51;100.00
29121;BME280;16191;49.548;8.658;2023-08-06T01:21:18;99431.56;;;16.56;100.00
29121;BME280;16191;49.548;8.658;2023-08-06T01:24:05;99429.66;;;16.58;100.00
29121;BME280;16191;49.548;8.658;2023-08-06T01:27:00;99425.47;;;16.55;100.00
29121;BME280;16191;49.548;8.658;2023-08-06T01:30:03;99415.03;;;16.54;100.00
29121;BME280;16191;49.548;8.658;2023-08-06T01:32:57;99416.97;;;16.52;100.00
29121;BME280;16191;49.548;8.658;2023-08-06T01:35:27;99418.03;;;16.49;100.00
29121;BME280;16191;49.548;8.658;2023-08-06T01:37:59;99417.06;;;16.50;100.00
29121;BME280;16191;49.548;8.658;2023-08-06T01:40:26;99423.31;;;16.49;100.00
29121;BME280;16191;49.548;8.658;2023-08-06T01:42:54;99410.38;;;16.46;100.00
29121;BME280;16191;49.548;8.658;2023-08-06T01:45:22;99413.38;;;16.53;100.00
29121;BME280;16191;49.548;8.658;2023-08-06T01:47:49;99402.22;;;16.49;100.00
29121;BME280;16191;49.548;8.658;2023-08-06T01:50:15;99412.41;;;16.54;100.00
29121;BME280;16191;49.548;8.658;2023-08-06T01:52:44;99400.81;;;16.56;100.00
29121;BME280;16191;49.548;8.658;2023-08-06T01:55:10;99397.34;;;16.56;100.00
29121;BME280;16191;49.548;8.658;2023-08-06T01:57:37;99394.09;;;16.52;100.00
29121;BME280;16191;49.548;8.658;2023-08-06T02:00:04;99392.41;;;16.51;100.00
29121;BME280;16191;49.548;8.658;2023-08-06T02:02:38;99391.59;;;16.51;100.00
29121;BME280;16191;49.548;8.658;2023-08-06T02:05:05;99397.69;;;16.51;100.00
29121;BME280;16191;49.548;8.658;2023-08-06T02:07:32;99401.41;;;16.49;100.00
29121;BME280;16191;49.548;8.658;2023-08-06T02:09:58;99399.00;;;16.45;100.00
29121;BME280;16191;49.548;8.658;2023-08-06T02:12:25;99404.03;;;16.49;100.00
29121;BME280;16191;49.548;8.658;2023-08-06T02:14:52;99401.78;;;16.44;100.00
29121;BME280;16191;49.548;8.658;2023-08-06T02:17:18;99399.28;;;16.42;100.00
29121;BME280;16191;49.548;8.658;2023-08-06T02:19:45;99402.25;;;16.38;100.00
29121;BME280;16191;49.548;8.658;2023-08-06T02:22:11;99400.22;;;16.41;100.00
29121;BME280;16191;49.548;8.658;2023-08-06T02:24:38;99388.00;;;16.40;100.00
29121;BME280;16191;49.548;8.658;2023-08-06T02:27:05;99398.66;;;16.39;100.00
29121;BME280;16191;49.548;8.658;2023-08-06T02:29:32;99388.25;;;16.37;100.00
29121;BME280;16191;49.548;8.658;2023-08-06T02:31:59;99390.16;;;16.35;100.00
29121;BME280;16191;49.548;8.658;2023-08-06T02:34:27;99396.25;;;16.36;100.00
29121;BME280;16191;49.548;8.658;2023-08-06T02:36:54;99384.06;;;16.35;100.00
29121;BME280;16191;49.548;8.658;2023-08-06T02:39:21;99396.38;;;16.34;100.00
29121;BME280;16191;49.548;8.658;2023-08-06T02:41:48;99394.94;;;16.30;100.00
29121;BME280;16191;49.548;8.658;2023-08-06T02:44:14;99387.50;;;16.24;100.00
29121;BME280;16191;49.548;8.658;2023-08-06T02:46:44;99388.63;;;16.22;100.00
29121;BME280;16191;49.548;8.658;2023-08-06T02:49:11;99389.56;;;16.21;100.00
29121;BME280;16191;49.548;8.658;2023-08-06T02:51:37;99374.63;;;16.21;100.00
29121;BME280;16191;49.548;8.658;2023-08-06T02:54:04;99376.66;;;16.18;100.00
29121;BME280;16191;49.548;8.658;2023-08-06T02:56:33;99368.25;;;16.13;100.00
29121;BME280;16191;49.548;8.658;2023-08-06T02:59:08;99373.16;;;16.17;100.00
29121;BME280;16191;49.548;8.658;2023-08-06T03:01:51;99377.47;;;16.07;100.00
29121;BME280;16191;49.548;8.658;2023-08-06T03:04:27;99372.31;;;16.05;100.00
29121;BME280;16191;49.548;8.658;2023-08-06T03:06:54;99378.78;;;16.01;100.00
29121;BME280;16191;49.548;8.658;2023-08-06T03:09:25;99377.34;;;15.97;100.00
29121;BME280;16191;49.548;8.658;2023-08-06T03:11:51;99372.44;;;15.93;100.00
29121;BME280;16191;49.548;8.658;2023-08-06T03:14:19;99373.72;;;15.87;100.00
29121;BME280;16191;49.548;8.658;2023-08-06T03:16:45;99365.84;;;15.87;100.00
29121;BME280;16191;49.548;8.658;2023-08-06T03:19:15;99359.97;;;15.84;100.00
29121;BME280;16191;49.548;8.658;2023-08-06T03:21:41;99355.44;;;15.86;100.00
29121;BME280;16191;49.548;8.658;2023-08-06T03:24:08;99357.00;;;15.88;100.00
29121;BME280;16191;49.548;8.658;2023-08-06T03:26:37;99348.38;;;15.86;100.00
29121;BME280;16191;49.548;8.658;2023-08-06T03:29:04;99358.91;;;15.86;100.00
29121;BME280;16191;49.548;8.658;2023-08-06T03:31:33;99351.97;;;15.85;100.00
29121;BME280;16191;49.548;8.658;2023-08-06T03:34:00;99359.13;;;15.83;100.00
29121;BME280;16191;49.548;8.658;2023-08-06T03:36:29;99356.50;;;15.83;100.00
29121;BME280;16191;49.548;8.658;2023-08-06T03:38:56;99355.53;;;15.84;100.00
29121;BME280;16191;49.548;8.658;2023-08-06T03:41:22;99358.41;;;15.81;100.00
29121;BME280;16191;49.548;8.658;2023-08-06T03:43:49;99353.53;;;15.76;100.00
29121;BME280;16191;49.548;8.658;2023-08-06T03:46:22;99350.66;;;15.80;100.00
29121;BME280;16191;49.548;8.658;2023-08-06T03:48:48;99348.38;;;15.75;100.00
29121;BME280;16191;49.548;8.658;2023-08-06T03:51:15;99345.50;;;15.78;100.00
29121;BME280;16191;49.548;8.658;2023-08-06T03:53:44;99352.56;;;15.77;100.00
29121;BME280;16191;49.548;8.658;2023-08-06T03:56:10;99351.13;;;15.73;100.00
29121;BME280;16191;49.548;8.658;2023-08-06T03:58:38;99345.25;;;15.70;100.00
29121;BME280;16191;49.548;8.658;2023-08-06T04:01:04;99350.63;;;15.68;100.00
29121;BME280;16191;49.548;8.658;2023-08-06T04:03:41;99355.88;;;15.68;100.00
29121;BME280;16191;49.548;8.658;2023-08-06T04:06:08;99342.63;;;15.70;100.00
29121;BME280;16191;49.548;8.658;2023-08-06T04:08:36;99355.78;;;15.70;100.00
29121;BME280;16191;49.548;8.658;2023-08-06T04:11:02;99357.06;;;15.64;100.00
29121;BME280;16191;49.548;8.658;2023-08-06T04:13:30;99357.56;;;15.58;100.00
29121;BME280;16191;49.548;8.658;2023-08-06T04:16:03;99355.13;;;15.55;100.00
29121;BME280;16191;49.548;8.658;2023-08-06T04:18:31;99360.94;;;15.48;100.00
29121;BME280;16191;49.548;8.658;2023-08-06T04:20:58;99348.28;;;15.53;100.00
29121;BME280;16191;49.548;8.658;2023-08-06T04:23:24;99354.63;;;15.50;100.00
29121;BME280;16191;49.548;8.658;2023-08-06T04:25:58;99357.97;;;15.52;100.00
29121;BME280;16191;49.548;8.658;2023-08-06T04:28:29;99350.81;;;15.54;100.00
29121;BME280;16191;49.548;8.658;2023-08-06T04:30:56;99355.13;;;15.55;100.00
29121;BME280;16191;49.548;8.658;2023-08-06T04:33:23;99358.53;;;15.44;100.00
29121;BME280;16191;49.548;8.658;2023-08-06T04:35:56;99362.00;;;15.45;100.00
29121;BME280;16191;49.548;8.658;2023-08-06T04:38:25;99354.81;;;15.36;100.00
29121;BME280;16191;49.548;8.658;2023-08-06T04:40:53;99361.97;;;15.34;100.00
29121;BME280;16191;49.548;8.658;2023-08-06T04:43:21;99359.28;;;15.23;100.00
29121;BME280;16191;49.548;8.658;2023-08-06T04:45:54;99358.00;;;15.28;100.00
29121;BME280;16191;49.548;8.658;2023-08-06T04:48:21;99369.88;;;15.34;100.00
29121;BME280;16191;49.548;8.658;2023-08-06T04:50:49;99362.53;;;15.26;100.00
29121;BME280;16191;49.548;8.658;2023-08-06T04:53:16;99365.16;;;15.26;100.00
29121;BME280;16191;49.548;8.658;2023-08-06T04:55:43;99365.16;;;15.26;100.00
29121;BME280;16191;49.548;8.658;2023-08-06T04:58:10;99358.91;;;15.16;100.00
29121;BME280;16191;49.548;8.658;2023-08-06T05:00:37;99360.25;;;15.22;100.00
29121;BME280;16191;49.548;8.658;2023-08-06T05:03:03;99358.91;;;15.16;100.00
29121;BME280;16191;49.548;8.658;2023-08-06T05:05:30;99357.72;;;15.20;100.00
29121;BME280;16191;49.548;8.658;2023-08-06T05:07:57;99352.53;;;15.31;100.00
29121;BME280;16191;49.548;8.658;2023-08-06T05:10:27;99350.78;;;15.19;100.00
29121;BME280;16191;49.548;8.658;2023-08-06T05:12:54;99354.38;;;15.18;100.00
29121;BME280;16191;49.548;8.658;2023-08-06T05:15:21;99352.56;;;15.19;100.00
29121;BME280;16191;49.548;8.658;2023-08-06T05:17:48;99353.72;;;15.03;100.00
29121;BME280;16191;49.548;8.658;2023-08-06T05:20:15;99349.91;;;15.07;100.00
29121;BME280;16191;49.548;8.658;2023-08-06T05:22:43;99357.41;;;15.01;100.00
29121;BME280;16191;49.548;8.658;2023-08-06T05:25:13;99365.13;;;14.91;100.00
29121;BME280;16191;49.548;8.658;2023-08-06T05:27:40;99363.09;;;14.95;100.00
29121;BME280;16191;49.548;8.658;2023-08-06T05:30:08;99367.63;;;14.69;100.00
29121;BME280;16191;49.548;8.658;2023-08-06T05:32:34;99366.78;;;14.68;100.00
29121;BME280;16191;49.548;8.658;2023-08-06T05:35:01;99368.78;;;14.65;100.00
29121;BME280;16191;49.548;8.658;2023-08-06T05:37:28;99373.94;;;14.66;100.00
29121;BME280;16191;49.548;8.658;2023-08-06T05:39:54;99370.78;;;14.61;100.00
29121;BME280;16191;49.548;8.658;2023-08-06T05:42:21;99379.81;;;14.57;100.00
29121;BME280;16191;49.548;8.658;2023-08-06T05:44:48;99374.91;;;14.53;100.00
29121;BME280;16191;49.548;8.658;2023-08-06T05:47:14;99385.41;;;14.53;100.00
29121;BME280;16191;49.548;8.658;2023-08-06T05:49:41;99376.56;;;14.54;100.00
29121;BME280;16191;49.548;8.658;2023-08-06T05:52:07;99374.69;;;14.56;100.00
29121;BME280;16191;49.548;8.658;2023-08-06T05:54:34;99379.19;;;14.54;100.00
29121;BME280;16191;49.548;8.658;2023-08-06T05:57:01;99386.34;;;14.52;100.00
29121;BME280;16191;49.548;8.658;2023-08-06T05:59:28;99390.06;;;14.49;100.00
29121;BME280;16191;49.548;8.658;2023-08-06T06:01:54;99383.72;;;14.52;100.00
29121;BME280;16191;49.548;8.658;2023-08-06T06:04:21;99382.56;;;14.56;100.00
29121;BME280;16191;49.548;8.658;2023-08-06T06:06:48;99399.25;;;14.55;100.00
29121;BME280;16191;49.548;8.658;2023-08-06T06:09:15;99398.19;;;14.57;100.00
29121;BME280;16191;49.548;8.658;2023-08-06T06:11:41;99391.16;;;14.58;100.00
29121;BME280;16191;49.548;8.658;2023-08-06T06:14:08;99390.44;;;14.56;100.00
29121;BME280;16191;49.548;8.658;2023-08-06T06:16:35;99393.06;;;14.56;100.00
29121;BME280;16191;49.548;8.658;2023-08-06T06:19:01;99392.69;;;14.49;100.00
29121;BME280;16191;49.548;8.658;2023-08-06T06:21:28;99399.81;;;14.47;100.00
29121;BME280;16191;49.548;8.658;2023-08-06T06:23:55;99399.41;;;14.40;100.00
29121;BME280;16191;49.548;8.658;2023-08-06T06:26:22;99410.91;;;14.51;100.00
29121;BME280;16191;49.548;8.658;2023-08-06T06:28:49;99408.38;;;14.62;100.00
29121;BME280;16191;49.548;8.658;2023-08-06T06:31:16;99402.84;;;14.41;100.00
29121;BME280;16191;49.548;8.658;2023-08-06T06:33:42;99417.56;;;14.44;100.00
29121;BME280;16191;49.548;8.658;2023-08-06T06:36:09;99428.06;;;14.44;100.00
29121;BME280;16191;49.548;8.658;2023-08-06T06:38:36;99422.16;;;14.40;100.00
29121;BME280;16191;49.548;8.658;2023-08-06T06:41:02;99424.13;;;14.36;100.00
29121;BME280;16191;49.548;8.658;2023-08-06T06:43:30;99423.28;;;14.36;100.00
29121;BME280;16191;49.548;8.658;2023-08-06T06:45:57;99427.31;;;14.42;100.00
29121;BME280;16191;49.548;8.658;2023-08-06T06:48:28;99420.41;;;14.40;100.00
29121;BME280;16191;49.548;8.658;2023-08-06T06:50:55;99421.41;;;14.38;100.00
29121;BME280;16191;49.548;8.658;2023-08-06T06:53:22;99418.78;;;14.51;100.00
29121;BME280;16191;49.548;8.658;2023-08-06T06:56:01;99414.06;;;14.56;100.00
29121;BME280;16191;49.548;8.658;2023-08-06T06:58:28;99432.25;;;14.46;100.00
29121;BME280;16191;49.548;8.658;2023-08-06T07:00:55;99419.97;;;14.47;100.00
29121;BME280;16191;49.548;8.658;2023-08-06T07:03:21;99419.03;;;14.48;100.00
29121;BME280;16191;49.548;8.658;2023-08-06T07:05:49;99409.88;;;14.53;100.00
29121;BME280;16191;49.548;8.658;2023-08-06T07:08:16;99412.72;;;14.50;100.00
29121;BME280;16191;49.548;8.658;2023-08-06T07:10:43;99414.06;;;14.56;100.00
29121;BME280;16191;49.548;8.658;2023-08-06T07:13:09;99415.31;;;14.63;100.00
29121;BME280;16191;49.548;8.658;2023-08-06T07:15:36;99412.69;;;14.63;100.00
29121;BME280;16191;49.548;8.658;2023-08-06T07:18:03;99415.72;;;14.69;100.00
29121;BME280;16191;49.548;8.658;2023-08-06T07:20:29;99419.47;;;14.78;100.00
29121;BME280;16191;49.548;8.658;2023-08-06T07:22:58;99416.47;;;14.71;100.00
29121;BME280;16191;49.548;8.658;2023-08-06T07:25:25;99412.16;;;14.70;100.00
29121;BME280;16191;49.548;8.658;2023-08-06T07:27:52;99411.69;;;14.77;100.00
29121;BME280;16191;49.548;8.658;2023-08-06T07:30:19;99406.66;;;14.73;100.00
29121;BME280;16191;49.548;8.658;2023-08-06T07:32:45;99421.00;;;14.69;100.00
29121;BME280;16191;49.548;8.658;2023-08-06T07:35:12;99414.22;;;14.78;100.00
29121;BME280;16191;49.548;8.658;2023-08-06T07:37:40;99416.84;;;14.78;100.00
29121;BME280;16191;49.548;8.658;2023-08-06T07:40:08;99421.16;;;14.79;100.00
29121;BME280;16191;49.548;8.658;2023-08-06T07:42:35;99410.31;;;14.84;100.00
29121;BME280;16191;49.548;8.658;2023-08-06T07:45:01;99418.84;;;14.87;100.00
29121;BME280;16191;49.548;8.658;2023-08-06T07:47:28;99416.00;;;14.90;100.00
29121;BME280;16191;49.548;8.658;2023-08-06T07:49:55;99410.53;;;14.93;100.00
29121;BME280;16191;49.548;8.658;2023-08-06T07:52:22;99417.19;;;14.97;100.00
29121;BME280;16191;49.548;8.658;2023-08-06T07:54:48;99414.09;;;14.92;100.00
29121;BME280;16191;49.548;8.658;2023-08-06T07:57:15;99410.84;;;14.89;100.00
29121;BME280;16191;49.548;8.658;2023-08-06T07:59:42;99407.06;;;14.93;100.00
29121;BME280;16191;49.548;8.658;2023-08-06T08:02:08;99412.03;;;15.08;100.00
29121;BME280;16191;49.548;8.658;2023-08-06T08:04:35;99406.34;;;15.15;100.00
29121;BME280;16191;49.548;8.658;2023-08-06T08:07:02;99406.88;;;15.07;100.00
29121;BME280;16191;49.548;8.658;2023-08-06T08:09:28;99403.81;;;15.13;100.00
29121;BME280;16191;49.548;8.658;2023-08-06T08:11:55;99405.31;;;15.04;100.00
29121;BME280;16191;49.548;8.658;2023-08-06T08:14:26;99405.63;;;15.00;100.00
29121;BME280;16191;49.548;8.658;2023-08-06T08:16:53;99412.13;;;15.07;100.00
29121;BME280;16191;49.548;8.658;2023-08-06T08:19:19;99417.00;;;15.00;100.00
29121;BME280;16191;49.548;8.658;2023-08-06T08:21:47;99403.59;;;14.92;100.00
29121;BME280;16191;49.548;8.658;2023-08-06T08:24:14;99406.03;;;15.06;100.00
29121;BME280;16191;49.548;8.658;2023-08-06T08:26:40;99408.59;;;15.19;100.00
29121;BME280;16191;49.548;8.658;2023-08-06T08:29:07;99397.22;;;15.31;100.00
29121;BME280;16191;49.548;8.658;2023-08-06T08:31:34;99410.28;;;15.44;100.00
29121;BME280;16191;49.548;8.658;2023-08-06T08:34:05;99399.94;;;15.54;100.00
29121;BME280;16191;49.548;8.658;2023-08-06T08:36:32;99395.44;;;15.56;100.00
29121;BME280;16191;49.548;8.658;2023-08-06T08:38:59;99389.13;;;15.69;100.00
29121;BME280;16191;49.548;8.658;2023-08-06T08:41:28;99389.94;;;15.59;100.00
29121;BME280;16191;49.548;8.658;2023-08-06T08:43:58;99387.56;;;15.67;100.00
29121;BME280;16191;49.548;8.658;2023-08-06T08:46:32;99387.44;;;15.68;100.00
29121;BME280;16191;49.548;8.658;2023-08-06T08:49:02;99381.97;;;15.83;100.00
29121;BME280;16191;49.548;8.658;2023-08-06T08:51:28;99380.06;;;15.73;100.00
29121;BME280;16191;49.548;8.658;2023-08-06T08:53:55;99374.06;;;15.71;100.00
29121;BME280;16191;49.548;8.658;2023-08-06T08:56:25;99377.59;;;15.59;100.00
29121;BME280;16191;49.548;8.658;2023-08-06T08:58:52;99379.84;;;15.53;100.00
29121;BME280;16191;49.548;8.658;2023-08-06T09:01:24;99380.63;;;15.66;100.00
29121;BME280;16191;49.548;8.658;2023-08-06T09:03:51;99388.44;;;15.79;100.00
29121;BME280;16191;49.548;8.658;2023-08-06T09:06:19;99371.00;;;16.00;100.00
29121;BME280;16191;49.548;8.658;2023-08-06T09:08:53;99366.47;;;16.02;100.00
29121;BME280;16191;49.548;8.658;2023-08-06T09:11:23;99371.25;;;15.97;100.00
29121;BME280;16191;49.548;8.658;2023-08-06T09:13:50;99365.25;;;15.95;100.00
29121;BME280;16191;49.548;8.658;2023-08-06T09:16:16;99374.34;;;15.91;100.00
29121;BME280;16191;49.548;8.658;2023-08-06T09:18:43;99369.44;;;15.97;100.00
29121;BME280;16191;49.548;8.658;2023-08-06T09:21:14;99371.00;;;16.00;100.00
29121;BME280;16191;49.548;8.658;2023-08-06T09:23:41;99363.94;;;16.11;100.00
29121;BME280;16191;49.548;8.658;2023-08-06T09:26:11;99365.84;;;16.09;100.00
29121;BME280;16191;49.548;8.658;2023-08-06T09:28:42;99350.06;;;15.98;100.00
29121;BME280;16191;49.548;8.658;2023-08-06T09:31:09;99357.81;;;15.89;100.00
29121;BME280;16191;49.548;8.658;2023-08-06T09:33:37;99354.00;;;15.93;100.00
29121;BME280;16191;49.548;8.658;2023-08-06T09:36:09;99355.56;;;15.95;100.00
29121;BME280;16191;49.548;8.658;2023-08-06T09:38:40;99360.59;;;15.98;100.00
29121;BME280;16191;49.548;8.658;2023-08-06T09:41:07;99356.91;;;16.12;100.00
29121;BME280;16191;49.548;8.658;2023-08-06T09:43:41;99366.34;;;16.15;100.00
29121;BME280;16191;49.548;8.658;2023-08-06T09:46:14;99359.28;;;16.26;100.00
29121;BME280;16191;49.548;8.658;2023-08-06T09:48:46;99354.38;;;16.44;100.00
29121;BME280;16191;49.548;8.658;2023-08-06T09:51:14;99354.59;;;16.52;100.00
29121;BME280;16191;49.548;8.658;2023-08-06T09:53:42;99349.69;;;16.48;100.00
29121;BME280;16191;49.548;8.658;2023-08-06T09:56:09;99355.44;;;16.53;100.00
29121;BME280;16191;49.548;8.658;2023-08-06T09:58:38;99347.44;;;16.43;100.00
29121;BME280;16191;49.548;8.658;2023-08-06T10:01:04;99347.31;;;16.33;100.00
29121;BME280;16191;49.548;8.658;2023-08-06T10:03:32;99367.44;;;16.23;100.00
29121;BME280;16191;49.548;8.658;2023-08-06T10:06:00;99363.66;;;15.81;100.00
29121;BME280;16191;49.548;8.658;2023-08-06T10:08:28;99380.50;;;15.56;100.00
29121;BME280;16191;49.548;8.658;2023-08-06T10:10:55;99393.53;;;15.58;100.00
29121;BME280;16191;49.548;8.658;2023-08-06T10:13:24;99400.09;;;15.39;100.00
29121;BME280;16191;49.548;8.658;2023-08-06T10:15:51;99410.72;;;15.38;100.00
29121;BME280;16191;49.548;8.658;2023-08-06T10:18:19;99395.34;;;15.44;100.00
29121;BME280;16191;49.548;8.658;2023-08-06T10:20:48;99399.31;;;15.50;100.00
29121;BME280;16191;49.548;8.658;2023-08-06T10:23:15;99389.75;;;15.49;100.00
29121;BME280;16191;49.548;8.658;2023-08-06T10:25:43;99391.31;;;15.52;100.00
29121;BME280;16191;49.548;8.658;2023-08-06T10:28:11;99384.81;;;15.68;100.00
29121;BME280;16191;49.548;8.658;2023-08-06T10:30:47;99385.88;;;15.66;100.00
29121;BME280;16191;49.548;8.658;2023-08-06T10:33:14;99390.63;;;15.61;100.00
29121;BME280;16191;49.548;8.658;2023-08-06T10:35:45;99402.25;;;15.58;100.00
29121;BME280;16191;49.548;8.658;2023-08-06T10:38:25;99405.59;;;15.36;100.00
29121;BME280;16191;49.548;8.658;2023-08-06T10:45:58;99411.13;;;15.21;100.00
29121;BME280;16191;49.548;8.658;2023-08-06T10:48:35;99411.72;;;15.13;100.00
29121;BME280;16191;49.548;8.658;2023-08-06T10:51:03;99416.59;;;15.18;100.00
29121;BME280;16191;49.548;8.658;2023-08-06T10:53:31;99424.38;;;15.19;100.00
29121;BME280;16191;49.548;8.658;2023-08-06T10:56:01;99423.91;;;15.14;100.00
29121;BME280;16191;49.548;8.658;2023-08-06T10:58:32;99425.44;;;15.17;100.00
29121;BME280;16191;49.548;8.658;2023-08-06T11:01:00;99428.47;;;15.23;100.00
29121;BME280;16191;49.548;8.658;2023-08-06T11:03:27;99418.69;;;15.25;100.00
29121;BME280;16191;49.548;8.658;2023-08-06T11:05:54;99421.41;;;15.24;100.00
29121;BME280;16191;49.548;8.658;2023-08-06T11:08:28;99425.69;;;15.14;100.00
29121;BME280;16191;49.548;8.658;2023-08-06T11:10:55;99433.00;;;15.21;100.00
29121;BME280;16191;49.548;8.658;2023-08-06T11:13:29;99432.78;;;15.24;100.00
29121;BME280;16191;49.548;8.658;2023-08-06T11:15:57;99431.88;;;15.36;100.00
29121;BME280;16191;49.548;8.658;2023-08-06T11:18:24;99439.53;;;15.39;100.00
29121;BME280;16191;49.548;8.658;2023-08-06T11:20:51;99445.19;;;15.46;100.00
29121;BME280;16191;49.548;8.658;2023-08-06T11:23:18;99445.06;;;15.48;100.00
29121;BME280;16191;49.548;8.658;2023-08-06T11:25:44;99457.03;;;15.52;100.00
29121;BME280;16191;49.548;8.658;2023-08-06T11:28:12;99449.78;;;15.55;100.00
29121;BME280;16191;49.548;8.658;2023-08-06T11:30:39;99444.44;;;15.57;100.00
29121;BME280;16191;49.548;8.658;2023-08-06T11:33:07;99446.47;;;15.64;100.00
29121;BME280;16191;49.548;8.658;2023-08-06T11:35:36;99455.63;;;15.83;100.00
29121;BME280;16191;49.548;8.658;2023-08-06T11:38:04;99436.63;;;15.90;100.00
29121;BME280;16191;49.548;8.658;2023-08-06T11:40:32;99444.81;;;15.98;100.00
29121;BME280;16191;49.548;8.658;2023-08-06T11:42:58;99451.63;;;16.01;100.00
29121;BME280;16191;49.548;8.658;2023-08-06T11:45:25;99447.06;;;16.03;100.00
29121;BME280;16191;49.548;8.658;2023-08-06T11:47:52;99455.56;;;16.06;100.00
29121;BME280;16191;49.548;8.658;2023-08-06T11:50:26;99456.53;;;16.05;100.00
29121;BME280;16191;49.548;8.658;2023-08-06T11:52:59;99457.34;;;16.06;100.00
29121;BME280;16191;49.548;8.658;2023-08-06T11:55:27;99463.72;;;16.15;100.00
29121;BME280;16191;49.548;8.658;2023-08-06T11:57:55;99461.94;;;16.15;100.00
29121;BME280;16191;49.548;8.658;2023-08-06T12:00:25;99470.91;;;16.13;100.00
29121;BME280;16191;49.548;8.658;2023-08-06T12:02:52;99477.50;;;16.18;100.00
29121;BME280;16191;49.548;8.658;2023-08-06T12:05:21;99479.66;;;16.24;100.00
29121;BME280;16191;49.548;8.658;2023-08-06T12:07:54;99494.63;;;16.24;100.00
29121;BME280;16191;49.548;8.658;2023-08-06T12:10:24;99500.47;;;16.27;100.00
29121;BME280;16191;49.548;8.658;2023-08-06T12:12:51;99502.03;;;16.30;100.00
29121;BME280;16191;49.548;8.658;2023-08-06T12:15:18;99500.13;;;16.32;100.00
29121;BME280;16191;49.548;8.658;2023-08-06T12:17:45;99514.75;;;16.36;100.00
29121;BME280;16191;49.548;8.658;2023-08-06T12:20:12;99510.22;;;16.38;100.00
29121;BME280;16191;49.548;8.658;2023-08-06T12:22:39;99510.81;;;16.41;100.00
29121;BME280;16191;49.548;8.658;2023-08-06T12:25:07;99502.81;;;16.43;100.00
29121;BME280;16191;49.548;8.658;2023-08-06T12:27:35;99515.59;;;16.48;100.00
29121;BME280;16191;49.548;8.658;2023-08-06T12:30:03;99517.28;;;16.49;100.00
29121;BME280;16191;49.548;8.658;2023-08-06T12:32:30;99524.44;;;16.46;100.00
29121;BME280;16191;49.548;8.658;2023-08-06T12:34:57;99529.59;;;16.48;100.00
29121;BME280;16191;49.548;8.658;2023-08-06T12:37:25;99532.13;;;16.50;100.00
29121;BME280;16191;49.548;8.658;2023-08-06T12:39:51;99537.88;;;16.55;100.00
29121;BME280;16191;49.548;8.658;2023-08-06T12:42:18;99531.78;;;16.54;100.00
29121;BME280;16191;49.548;8.658;2023-08-06T12:44:45;99539.56;;;16.56;100.00
29121;BME280;16191;49.548;8.658;2023-08-06T12:47:11;99549.03;;;16.58;100.00
29121;BME280;16191;49.548;8.658;2023-08-06T12:49:38;99560.91;;;16.64;100.00
29121;BME280;16191;49.548;8.658;2023-08-06T12:52:05;99556.38;;;16.66;100.00
29121;BME280;16191;49.548;8.658;2023-08-06T12:54:33;99538.41;;;16.71;100.00
29121;BME280;16191;49.548;8.658;2023-08-06T12:57:04;99553.97;;;16.74;100.00
29121;BME280;16191;49.548;8.658;2023-08-06T12:59:31;99559.59;;;16.69;100.00
29121;BME280;16191;49.548;8.658;2023-08-06T13:02:00;99563.78;;;16.72;100.00
29121;BME280;16191;49.548;8.658;2023-08-06T13:04:27;99564.97;;;16.68;100.00